sensor_id;sensor_type;location;lat;lon;timestamp;temperature;humidity
4487;DHT22;2256;48.740;9.106;2022-09-03T00:02:19;16.50;95.90
4487;DHT22;2256;48.740;9.106;2022-09-03T00:04:54;16.60;95.80
4487;DHT22;2256;48.740;9.106;2022-09-03T00:07:29;16.70;95.40
4487;DHT22;2256;48.740;9.106;2022-09-03T00:10:04;16.70;95.40
4487;DHT22;2256;48.740;9.106;2022-09-03T00:12:36;16.70;95.40
4487;DHT22;2256;48.740;9.106;2022-09-03T00:15:09;16.80;95.40
4487;DHT22;2256;48.740;9.106;2022-09-03T00:17:40;16.90;95.40
4487;DHT22;2256;48.740;9.106;2022-09-03T00:20:11;16.80;95.50
4487;DHT22;2256;48.740;9.106;2022-09-03T00:22:42;16.80;95.50
4487;DHT22;2256;48.740;9.106;2022-09-03T00:25:14;16.80;95.40
4487;DHT22;2256;48.740;9.106;2022-09-03T00:27:44;16.90;95.30
4487;DHT22;2256;48.740;9.106;2022-09-03T00:30:17;16.80;95.30
4487;DHT22;2256;48.740;9.106;2022-09-03T00:32:47;16.80;95.30
4487;DHT22;2256;48.740;9.106;2022-09-03T00:35:18;16.90;95.40
4487;DHT22;2256;48.740;9.106;2022-09-03T00:37:46;16.90;95.40
4487;DHT22;2256;48.740;9.106;2022-09-03T00:40:21;16.90;95.40
4487;DHT22;2256;48.740;9.106;2022-09-03T00:42:57;16.90;95.50
4487;DHT22;2256;48.740;9.106;2022-09-03T00:45:33;16.90;95.70
4487;DHT22;2256;48.740;9.106;2022-09-03T00:48:11;16.90;95.60
4487;DHT22;2256;48.740;9.106;2022-09-03T00:50:52;16.90;95.20
4487;DHT22;2256;48.740;9.106;2022-09-03T00:53:29;16.80;95.40
4487;DHT22;2256;48.740;9.106;2022-09-03T00:56:05;16.80;95.60
4487;DHT22;2256;48.740;9.106;2022-09-03T00:58:53;16.80;95.50
4487;DHT22;2256;48.740;9.106;2022-09-03T01:01:29;16.90;95.60
4487;DHT22;2256;48.740;9.106;2022-09-03T01:04:07;17.00;95.20
4487;DHT22;2256;48.740;9.106;2022-09-03T01:06:43;17.00;95.30
4487;DHT22;2256;48.740;9.106;2022-09-03T01:09:24;17.00;95.30
4487;DHT22;2256;48.740;9.106;2022-09-03T01:12:01;17.10;95.20
4487;DHT22;2256;48.740;9.106;2022-09-03T01:14:47;17.10;95.20
4487;DHT22;2256;48.740;9.106;2022-09-03T01:17:24;17.00;95.20
4487;DHT22;2256;48.740;9.106;2022-09-03T01:20:19;17.00;95.20
4487;DHT22;2256;48.740;9.106;2022-09-03T01:26:09;17.00;95.40
4487;DHT22;2256;48.740;9.106;2022-09-03T01:28:53;16.90;95.60
4487;DHT22;2256;48.740;9.106;2022-09-03T01:31:36;16.90;95.60
4487;DHT22;2256;48.740;9.106;2022-09-03T01:34:10;16.90;95.30
4487;DHT22;2256;48.740;9.106;2022-09-03T01:36:43;16.90;95.20
4487;DHT22;2256;48.740;9.106;2022-09-03T01:39:16;16.80;95.40
4487;DHT22;2256;48.740;9.106;2022-09-03T01:41:53;16.80;95.60
4487;DHT22;2256;48.740;9.106;2022-09-03T01:45:10;16.80;95.60
4487;DHT22;2256;48.740;9.106;2022-09-03T01:47:51;16.80;95.90
4487;DHT22;2256;48.740;9.106;2022-09-03T01:50:32;16.70;95.90
4487;DHT22;2256;48.740;9.106;2022-09-03T01:53:07;16.70;96.00
4487;DHT22;2256;48.740;9.106;2022-09-03T01:55:46;16.70;95.90
4487;DHT22;2256;48.740;9.106;2022-09-03T01:58:18;16.70;96.10
4487;DHT22;2256;48.740;9.106;2022-09-03T02:00:51;16.70;96.10
4487;DHT22;2256;48.740;9.106;2022-09-03T02:03:22;16.60;96.10
4487;DHT22;2256;48.740;9.106;2022-09-03T02:05:49;16.60;96.20
4487;DHT22;2256;48.740;9.106;2022-09-03T02:08:17;16.60;96.40
4487;DHT22;2256;48.740;9.106;2022-09-03T02:10:46;16.60;96.60
4487;DHT22;2256;48.740;9.106;2022-09-03T02:13:17;16.60;96.90
4487;DHT22;2256;48.740;9.106;2022-09-03T02:15:49;16.50;97.20
4487;DHT22;2256;48.740;9.106;2022-09-03T02:18:19;16.50;97.20
4487;DHT22;2256;48.740;9.106;2022-09-03T02:20:48;16.50;97.00
4487;DHT22;2256;48.740;9.106;2022-09-03T02:23:15;16.50;97.10
4487;DHT22;2256;48.740;9.106;2022-09-03T02:25:45;16.60;97.40
4487;DHT22;2256;48.740;9.106;2022-09-03T02:28:13;16.60;97.70
4487;DHT22;2256;48.740;9.106;2022-09-03T02:30:40;16.60;97.30
4487;DHT22;2256;48.740;9.106;2022-09-03T02:33:09;16.60;97.40
4487;DHT22;2256;48.740;9.106;2022-09-03T02:35:36;16.50;97.60
4487;DHT22;2256;48.740;9.106;2022-09-03T02:38:10;16.50;97.70
4487;DHT22;2256;48.740;9.106;2022-09-03T02:40:37;16.40;97.80
4487;DHT22;2256;48.740;9.106;2022-09-03T02:43:10;16.20;98.10
4487;DHT22;2256;48.740;9.106;2022-09-03T02:45:41;16.20;98.60
4487;DHT22;2256;48.740;9.106;2022-09-03T02:48:17;16.10;98.80
4487;DHT22;2256;48.740;9.106;2022-09-03T02:50:46;16.00;98.80
4487;DHT22;2256;48.740;9.106;2022-09-03T02:53:12;15.90;98.80
4487;DHT22;2256;48.740;9.106;2022-09-03T02:55:39;15.90;99.00
4487;DHT22;2256;48.740;9.106;2022-09-03T02:58:06;15.80;99.00
4487;DHT22;2256;48.740;9.106;2022-09-03T03:00:33;15.70;99.10
4487;DHT22;2256;48.740;9.106;2022-09-03T03:03:00;15.70;99.30
4487;DHT22;2256;48.740;9.106;2022-09-03T03:05:34;15.80;99.30
4487;DHT22;2256;48.740;9.106;2022-09-03T03:08:03;15.80;99.40
4487;DHT22;2256;48.740;9.106;2022-09-03T03:10:31;15.70;99.50
4487;DHT22;2256;48.740;9.106;2022-09-03T03:12:58;15.80;99.50
4487;DHT22;2256;48.740;9.106;2022-09-03T03:15:25;15.70;99.60
4487;DHT22;2256;48.740;9.106;2022-09-03T03:17:54;15.70;99.70
4487;DHT22;2256;48.740;9.106;2022-09-03T03:20:21;15.60;99.80
4487;DHT22;2256;48.740;9.106;2022-09-03T03:22:50;15.60;99.90
4487;DHT22;2256;48.740;9.106;2022-09-03T03:25:17;15.60;99.90
4487;DHT22;2256;48.740;9.106;2022-09-03T03:27:43;15.60;99.90
4487;DHT22;2256;48.740;9.106;2022-09-03T03:30:11;15.60;99.90
4487;DHT22;2256;48.740;9.106;2022-09-03T03:32:38;15.60;99.90
4487;DHT22;2256;48.740;9.106;2022-09-03T03:35:06;15.50;99.90
4487;DHT22;2256;48.740;9.106;2022-09-03T03:37:33;15.50;99.90
4487;DHT22;2256;48.740;9.106;2022-09-03T03:40:02;15.30;99.90
4487;DHT22;2256;48.740;9.106;2022-09-03T03:42:32;15.30;99.90
4487;DHT22;2256;48.740;9.106;2022-09-03T03:44:59;15.50;99.90
4487;DHT22;2256;48.740;9.106;2022-09-03T03:47:27;15.50;99.90
4487;DHT22;2256;48.740;9.106;2022-09-03T03:49:55;15.60;99.90
4487;DHT22;2256;48.740;9.106;2022-09-03T03:52:22;15.60;99.90
4487;DHT22;2256;48.740;9.106;2022-09-03T03:54:49;15.70;99.90
4487;DHT22;2256;48.740;9.106;2022-09-03T03:57:17;15.70;99.90
4487;DHT22;2256;48.740;9.106;2022-09-03T03:59:45;15.80;99.90
4487;DHT22;2256;48.740;9.106;2022-09-03T04:02:12;15.80;99.90
4487;DHT22;2256;48.740;9.106;2022-09-03T04:04:39;15.80;99.90
4487;DHT22;2256;48.740;9.106;2022-09-03T04:07:06;15.80;99.90
4487;DHT22;2256;48.740;9.106;2022-09-03T04:09:33;15.80;99.90
4487;DHT22;2256;48.740;9.106;2022-09-03T04:12:00;15.80;99.90
4487;DHT22;2256;48.740;9.106;2022-09-03T04:14:29;15.80;99.90
4487;DHT22;2256;48.740;9.106;2022-09-03T04:16:56;15.80;99.90
4487;DHT22;2256;48.740;9.106;2022-09-03T04:19:22;15.80;99.90
4487;DHT22;2256;48.740;9.106;2022-09-03T04:21:49;15.80;99.90
4487;DHT22;2256;48.740;9.106;2022-09-03T04:24:16;15.80;99.90
4487;DHT22;2256;48.740;9.106;2022-09-03T04:26:43;15.80;99.90
4487;DHT22;2256;48.740;9.106;2022-09-03T04:29:09;15.80;99.90
4487;DHT22;2256;48.740;9.106;2022-09-03T04:31:38;15.80;99.90
4487;DHT22;2256;48.740;9.106;2022-09-03T04:34:25;15.80;99.90
4487;DHT22;2256;48.740;9.106;2022-09-03T04:36:52;15.80;99.90
4487;DHT22;2256;48.740;9.106;2022-09-03T04:39:18;15.70;99.90
4487;DHT22;2256;48.740;9.106;2022-09-03T04:41:45;15.70;99.90
4487;DHT22;2256;48.740;9.106;2022-09-03T04:44:12;15.70;99.90
4487;DHT22;2256;48.740;9.106;2022-09-03T04:46:40;15.60;99.90
4487;DHT22;2256;48.740;9.106;2022-09-03T04:49:07;15.70;99.90
4487;DHT22;2256;48.740;9.106;2022-09-03T04:51:35;15.90;99.90
4487;DHT22;2256;48.740;9.106;2022-09-03T04:54:03;15.90;99.90
4487;DHT22;2256;48.740;9.106;2022-09-03T04:56:32;15.80;99.90
4487;DHT22;2256;48.740;9.106;2022-09-03T04:59:00;15.70;99.90
4487;DHT22;2256;48.740;9.106;2022-09-03T05:01:29;15.70;99.90
4487;DHT22;2256;48.740;9.106;2022-09-03T05:03:58;15.80;99.90
4487;DHT22;2256;48.740;9.106;2022-09-03T05:06:26;15.80;99.90
4487;DHT22;2256;48.740;9.106;2022-09-03T05:08:53;15.80;99.90
4487;DHT22;2256;48.740;9.106;2022-09-03T05:11:21;15.80;99.90
4487;DHT22;2256;48.740;9.106;2022-09-03T05:13:49;15.90;99.90
4487;DHT22;2256;48.740;9.106;2022-09-03T05:16:17;16.00;99.90
4487;DHT22;2256;48.740;9.106;2022-09-03T05:18:44;16.10;99.90
4487;DHT22;2256;48.740;9.106;2022-09-03T05:21:14;16.20;99.90
4487;DHT22;2256;48.740;9.106;2022-09-03T05:23:43;16.20;99.90
4487;DHT22;2256;48.740;9.106;2022-09-03T05:26:11;16.20;99.90
4487;DHT22;2256;48.740;9.106;2022-09-03T05:28:40;16.30;99.90
4487;DHT22;2256;48.740;9.106;2022-09-03T05:31:09;16.40;99.90
4487;DHT22;2256;48.740;9.106;2022-09-03T05:33:38;16.40;99.90
4487;DHT22;2256;48.740;9.106;2022-09-03T05:36:08;16.50;99.90
4487;DHT22;2256;48.740;9.106;2022-09-03T05:38:37;16.60;99.90
4487;DHT22;2256;48.740;9.106;2022-09-03T05:41:05;16.70;99.90
4487;DHT22;2256;48.740;9.106;2022-09-03T05:43:33;16.80;99.90
4487;DHT22;2256;48.740;9.106;2022-09-03T05:46:01;16.80;99.90
4487;DHT22;2256;48.740;9.106;2022-09-03T05:48:28;16.80;99.90
4487;DHT22;2256;48.740;9.106;2022-09-03T05:50:59;16.80;99.90
4487;DHT22;2256;48.740;9.106;2022-09-03T05:53:26;16.90;99.90
4487;DHT22;2256;48.740;9.106;2022-09-03T05:55:58;16.90;99.90
4487;DHT22;2256;48.740;9.106;2022-09-03T05:58:29;17.00;99.90
4487;DHT22;2256;48.740;9.106;2022-09-03T06:00:56;17.00;99.90
4487;DHT22;2256;48.740;9.106;2022-09-03T06:03:23;17.10;99.90
4487;DHT22;2256;48.740;9.106;2022-09-03T06:05:50;17.10;99.90
4487;DHT22;2256;48.740;9.106;2022-09-03T06:08:17;17.20;99.90
4487;DHT22;2256;48.740;9.106;2022-09-03T06:10:44;17.10;99.90
4487;DHT22;2256;48.740;9.106;2022-09-03T06:13:12;17.10;99.90
4487;DHT22;2256;48.740;9.106;2022-09-03T06:15:39;17.10;99.90
4487;DHT22;2256;48.740;9.106;2022-09-03T06:18:06;17.10;99.90
4487;DHT22;2256;48.740;9.106;2022-09-03T06:20:33;17.10;99.90
4487;DHT22;2256;48.740;9.106;2022-09-03T06:23:00;17.30;99.90
4487;DHT22;2256;48.740;9.106;2022-09-03T06:25:26;17.50;99.90
4487;DHT22;2256;48.740;9.106;2022-09-03T06:27:53;17.30;99.90
4487;DHT22;2256;48.740;9.106;2022-09-03T06:30:21;17.60;99.90
4487;DHT22;2256;48.740;9.106;2022-09-03T06:32:51;17.70;99.90
4487;DHT22;2256;48.740;9.106;2022-09-03T06:35:18;17.90;99.90
4487;DHT22;2256;48.740;9.106;2022-09-03T06:37:45;17.90;99.90
4487;DHT22;2256;48.740;9.106;2022-09-03T06:40:12;18.00;99.90
4487;DHT22;2256;48.740;9.106;2022-09-03T06:42:55;18.00;99.90
4487;DHT22;2256;48.740;9.106;2022-09-03T06:45:28;18.00;99.90
4487;DHT22;2256;48.740;9.106;2022-09-03T06:48:02;18.00;99.90
4487;DHT22;2256;48.740;9.106;2022-09-03T06:50:29;18.00;99.90
4487;DHT22;2256;48.740;9.106;2022-09-03T06:52:56;18.10;99.90
4487;DHT22;2256;48.740;9.106;2022-09-03T06:55:23;18.20;99.90
4487;DHT22;2256;48.740;9.106;2022-09-03T06:57:49;18.30;99.90
4487;DHT22;2256;48.740;9.106;2022-09-03T07:00:21;18.30;99.90
4487;DHT22;2256;48.740;9.106;2022-09-03T07:02:55;18.30;99.90
4487;DHT22;2256;48.740;9.106;2022-09-03T07:05:22;18.30;99.90
4487;DHT22;2256;48.740;9.106;2022-09-03T07:07:50;18.40;99.90
4487;DHT22;2256;48.740;9.106;2022-09-03T07:10:17;18.40;99.90
4487;DHT22;2256;48.740;9.106;2022-09-03T07:12:46;18.50;99.90
4487;DHT22;2256;48.740;9.106;2022-09-03T07:15:13;18.70;99.90
4487;DHT22;2256;48.740;9.106;2022-09-03T07:17:39;18.90;99.90
4487;DHT22;2256;48.740;9.106;2022-09-03T07:20:08;19.20;99.90
4487;DHT22;2256;48.740;9.106;2022-09-03T07:22:35;19.30;99.90
4487;DHT22;2256;48.740;9.106;2022-09-03T07:25:02;19.40;99.90
4487;DHT22;2256;48.740;9.106;2022-09-03T07:27:29;19.40;99.90
4487;DHT22;2256;48.740;9.106;2022-09-03T07:29:56;19.50;99.90
4487;DHT22;2256;48.740;9.106;2022-09-03T07:32:23;19.80;99.90
4487;DHT22;2256;48.740;9.106;2022-09-03T07:34:49;20.00;99.90
4487;DHT22;2256;48.740;9.106;2022-09-03T07:37:18;20.30;99.90
4487;DHT22;2256;48.740;9.106;2022-09-03T07:39:45;20.50;99.90
4487;DHT22;2256;48.740;9.106;2022-09-03T07:42:12;20.70;99.90
4487;DHT22;2256;48.740;9.106;2022-09-03T07:44:39;20.90;99.90
4487;DHT22;2256;48.740;9.106;2022-09-03T07:47:05;21.10;99.90
4487;DHT22;2256;48.740;9.106;2022-09-03T07:49:32;21.10;99.90
4487;DHT22;2256;48.740;9.106;2022-09-03T07:51:59;21.00;99.90
4487;DHT22;2256;48.740;9.106;2022-09-03T07:54:28;21.00;99.90
4487;DHT22;2256;48.740;9.106;2022-09-03T07:56:56;21.00;99.90
4487;DHT22;2256;48.740;9.106;2022-09-03T07:59:23;20.80;99.90
4487;DHT22;2256;48.740;9.106;2022-09-03T08:01:50;20.90;99.90
4487;DHT22;2256;48.740;9.106;2022-09-03T08:04:17;21.20;99.90
4487;DHT22;2256;48.740;9.106;2022-09-03T08:06:45;21.40;99.90
4487;DHT22;2256;48.740;9.106;2022-09-03T08:09:13;21.60;99.90
4487;DHT22;2256;48.740;9.106;2022-09-03T08:11:42;22.20;99.90
4487;DHT22;2256;48.740;9.106;2022-09-03T08:14:10;22.80;99.90
4487;DHT22;2256;48.740;9.106;2022-09-03T08:16:39;23.10;99.80
4487;DHT22;2256;48.740;9.106;2022-09-03T08:19:06;23.80;99.40
4487;DHT22;2256;48.740;9.106;2022-09-03T08:21:33;25.50;97.80
4487;DHT22;2256;48.740;9.106;2022-09-03T08:24:01;26.80;95.30
4487;DHT22;2256;48.740;9.106;2022-09-03T08:26:29;27.30;93.60
4487;DHT22;2256;48.740;9.106;2022-09-03T08:28:58;28.30;93.00
4487;DHT22;2256;48.740;9.106;2022-09-03T08:31:25;29.50;91.50
4487;DHT22;2256;48.740;9.106;2022-09-03T08:33:54;30.50;87.70
4487;DHT22;2256;48.740;9.106;2022-09-03T08:36:22;30.90;87.60
4487;DHT22;2256;48.740;9.106;2022-09-03T08:38:50;31.50;85.50
4487;DHT22;2256;48.740;9.106;2022-09-03T08:41:22;31.10;83.80
4487;DHT22;2256;48.740;9.106;2022-09-03T08:44:17;30.70;84.40
4487;DHT22;2256;48.740;9.106;2022-09-03T08:46:49;30.50;85.50
4487;DHT22;2256;48.740;9.106;2022-09-03T08:49:22;30.60;85.00
4487;DHT22;2256;48.740;9.106;2022-09-03T08:51:51;30.10;84.40
4487;DHT22;2256;48.740;9.106;2022-09-03T08:54:23;28.90;86.40
4487;DHT22;2256;48.740;9.106;2022-09-03T08:56:52;27.90;88.10
4487;DHT22;2256;48.740;9.106;2022-09-03T08:59:22;27.10;90.30
4487;DHT22;2256;48.740;9.106;2022-09-03T09:01:54;26.40;91.30
4487;DHT22;2256;48.740;9.106;2022-09-03T09:04:31;25.80;91.90
4487;DHT22;2256;48.740;9.106;2022-09-03T09:07:06;25.30;92.30
4487;DHT22;2256;48.740;9.106;2022-09-03T09:09:46;24.90;92.40
4487;DHT22;2256;48.740;9.106;2022-09-03T09:12:23;24.50;93.50
4487;DHT22;2256;48.740;9.106;2022-09-03T09:15:05;24.30;93.80
4487;DHT22;2256;48.740;9.106;2022-09-03T09:17:45;23.90;94.20
4487;DHT22;2256;48.740;9.106;2022-09-03T09:20:22;23.50;94.60
4487;DHT22;2256;48.740;9.106;2022-09-03T09:22:54;23.40;94.90
4487;DHT22;2256;48.740;9.106;2022-09-03T09:25:24;23.10;95.30
4487;DHT22;2256;48.740;9.106;2022-09-03T09:27:57;23.30;95.20
4487;DHT22;2256;48.740;9.106;2022-09-03T09:30:27;23.30;95.80
4487;DHT22;2256;48.740;9.106;2022-09-03T09:32:54;24.00;95.20
4487;DHT22;2256;48.740;9.106;2022-09-03T09:35:21;24.80;94.20
4487;DHT22;2256;48.740;9.106;2022-09-03T09:37:50;26.20;93.30
4487;DHT22;2256;48.740;9.106;2022-09-03T09:40:27;27.80;92.20
4487;DHT22;2256;48.740;9.106;2022-09-03T09:43:09;29.30;90.70
4487;DHT22;2256;48.740;9.106;2022-09-03T09:45:39;30.20;87.60
4487;DHT22;2256;48.740;9.106;2022-09-03T09:48:19;30.90;85.40
4487;DHT22;2256;48.740;9.106;2022-09-03T09:50:46;30.00;85.60
4487;DHT22;2256;48.740;9.106;2022-09-03T09:53:16;28.50;87.30
4487;DHT22;2256;48.740;9.106;2022-09-03T09:55:51;27.00;90.10
4487;DHT22;2256;48.740;9.106;2022-09-03T09:58:22;26.10;91.20
4487;DHT22;2256;48.740;9.106;2022-09-03T10:01:00;25.30;92.60
4487;DHT22;2256;48.740;9.106;2022-09-03T10:03:30;24.90;92.70
4487;DHT22;2256;48.740;9.106;2022-09-03T10:06:05;24.50;93.00
4487;DHT22;2256;48.740;9.106;2022-09-03T10:08:46;24.10;93.50
4487;DHT22;2256;48.740;9.106;2022-09-03T10:11:13;23.90;93.50
4487;DHT22;2256;48.740;9.106;2022-09-03T10:13:42;23.80;93.90
4487;DHT22;2256;48.740;9.106;2022-09-03T10:16:19;23.60;94.30
4487;DHT22;2256;48.740;9.106;2022-09-03T10:18:54;23.30;93.90
4487;DHT22;2256;48.740;9.106;2022-09-03T10:21:29;23.20;94.20
4487;DHT22;2256;48.740;9.106;2022-09-03T10:24:00;23.10;94.70
4487;DHT22;2256;48.740;9.106;2022-09-03T10:26:29;23.20;94.40
4487;DHT22;2256;48.740;9.106;2022-09-03T10:29:00;23.30;94.30
4487;DHT22;2256;48.740;9.106;2022-09-03T10:31:41;23.50;93.80
4487;DHT22;2256;48.740;9.106;2022-09-03T10:34:14;23.80;95.00
4487;DHT22;2256;48.740;9.106;2022-09-03T10:36:48;24.20;93.50
4487;DHT22;2256;48.740;9.106;2022-09-03T10:39:22;24.40;93.40
4487;DHT22;2256;48.740;9.106;2022-09-03T10:42:01;24.30;93.00
4487;DHT22;2256;48.740;9.106;2022-09-03T10:44:51;24.30;93.70
4487;DHT22;2256;48.740;9.106;2022-09-03T10:47:36;24.60;93.40
4487;DHT22;2256;48.740;9.106;2022-09-03T10:50:12;24.50;93.50
4487;DHT22;2256;48.740;9.106;2022-09-03T10:52:50;24.20;93.00
4487;DHT22;2256;48.740;9.106;2022-09-03T10:55:24;24.00;93.20
4487;DHT22;2256;48.740;9.106;2022-09-03T10:58:05;24.20;93.70
4487;DHT22;2256;48.740;9.106;2022-09-03T11:00:39;24.50;93.30
4487;DHT22;2256;48.740;9.106;2022-09-03T11:03:42;24.60;93.40
4487;DHT22;2256;48.740;9.106;2022-09-03T11:06:14;24.50;93.10
4487;DHT22;2256;48.740;9.106;2022-09-03T11:08:48;24.10;93.60
4487;DHT22;2256;48.740;9.106;2022-09-03T11:11:19;23.80;94.00
4487;DHT22;2256;48.740;9.106;2022-09-03T11:13:52;23.80;94.20
4487;DHT22;2256;48.740;9.106;2022-09-03T11:16:23;23.90;94.30
4487;DHT22;2256;48.740;9.106;2022-09-03T11:18:56;24.00;94.20
4487;DHT22;2256;48.740;9.106;2022-09-03T11:21:26;24.00;94.30
4487;DHT22;2256;48.740;9.106;2022-09-03T11:24:03;24.10;94.20
4487;DHT22;2256;48.740;9.106;2022-09-03T11:26:31;24.00;94.10
4487;DHT22;2256;48.740;9.106;2022-09-03T11:29:05;24.00;94.10
4487;DHT22;2256;48.740;9.106;2022-09-03T11:31:50;23.90;94.30
4487;DHT22;2256;48.740;9.106;2022-09-03T11:34:29;23.80;94.00
4487;DHT22;2256;48.740;9.106;2022-09-03T11:37:14;23.50;94.60
4487;DHT22;2256;48.740;9.106;2022-09-03T11:39:43;23.20;94.90
4487;DHT22;2256;48.740;9.106;2022-09-03T11:42:12;23.10;95.00
4487;DHT22;2256;48.740;9.106;2022-09-03T11:44:49;23.00;95.20
4487;DHT22;2256;48.740;9.106;2022-09-03T11:47:21;22.90;95.10
4487;DHT22;2256;48.740;9.106;2022-09-03T11:49:52;22.90;95.70
4487;DHT22;2256;48.740;9.106;2022-09-03T11:52:25;22.70;96.10
4487;DHT22;2256;48.740;9.106;2022-09-03T11:54:53;22.50;96.40
4487;DHT22;2256;48.740;9.106;2022-09-03T11:57:24;22.30;96.50
4487;DHT22;2256;48.740;9.106;2022-09-03T11:59:52;22.10;96.60
4487;DHT22;2256;48.740;9.106;2022-09-03T12:02:25;21.80;97.90
4487;DHT22;2256;48.740;9.106;2022-09-03T12:05:07;21.70;98.40
4487;DHT22;2256;48.740;9.106;2022-09-03T12:07:47;21.50;99.00
4487;DHT22;2256;48.740;9.106;2022-09-03T12:10:29;21.30;99.70
4487;DHT22;2256;48.740;9.106;2022-09-03T12:13:12;21.10;99.90
4487;DHT22;2256;48.740;9.106;2022-09-03T12:18:38;20.90;99.90
4487;DHT22;2256;48.740;9.106;2022-09-03T12:21:09;20.80;99.90
4487;DHT22;2256;48.740;9.106;2022-09-03T12:23:40;20.60;99.90
4487;DHT22;2256;48.740;9.106;2022-09-03T12:26:11;20.40;99.90
4487;DHT22;2256;48.740;9.106;2022-09-03T12:28:40;20.20;99.90
4487;DHT22;2256;48.740;9.106;2022-09-03T12:31:08;20.00;99.90
4487;DHT22;2256;48.740;9.106;2022-09-03T12:33:45;19.70;99.90
4487;DHT22;2256;48.740;9.106;2022-09-03T12:36:13;19.30;99.90
4487;DHT22;2256;48.740;9.106;2022-09-03T12:38:40;19.20;99.90
4487;DHT22;2256;48.740;9.106;2022-09-03T12:41:23;19.10;99.90
4487;DHT22;2256;48.740;9.106;2022-09-03T12:43:53;18.80;99.90
4487;DHT22;2256;48.740;9.106;2022-09-03T12:46:24;18.70;99.90
4487;DHT22;2256;48.740;9.106;2022-09-03T12:48:53;18.60;99.90
4487;DHT22;2256;48.740;9.106;2022-09-03T12:51:22;18.40;99.90
4487;DHT22;2256;48.740;9.106;2022-09-03T12:53:50;18.20;99.90
4487;DHT22;2256;48.740;9.106;2022-09-03T12:56:19;18.20;99.90
4487;DHT22;2256;48.740;9.106;2022-09-03T12:58:50;18.10;99.90
4487;DHT22;2256;48.740;9.106;2022-09-03T13:01:21;18.00;99.90
4487;DHT22;2256;48.740;9.106;2022-09-03T13:03:51;18.00;99.90
4487;DHT22;2256;48.740;9.106;2022-09-03T13:06:26;18.10;99.90
4487;DHT22;2256;48.740;9.106;2022-09-03T13:08:56;18.10;99.90
4487;DHT22;2256;48.740;9.106;2022-09-03T13:11:25;18.20;99.90
4487;DHT22;2256;48.740;9.106;2022-09-03T13:13:54;18.30;99.90
4487;DHT22;2256;48.740;9.106;2022-09-03T13:19:32;18.40;99.90
4487;DHT22;2256;48.740;9.106;2022-09-03T13:22:10;18.50;99.90
4487;DHT22;2256;48.740;9.106;2022-09-03T13:25:02;18.60;99.90
4487;DHT22;2256;48.740;9.106;2022-09-03T13:27:35;18.80;99.90
4487;DHT22;2256;48.740;9.106;2022-09-03T13:30:07;19.00;99.90
4487;DHT22;2256;48.740;9.106;2022-09-03T13:32:41;19.40;99.90
4487;DHT22;2256;48.740;9.106;2022-09-03T13:35:15;19.70;99.90
4487;DHT22;2256;48.740;9.106;2022-09-03T13:37:52;20.00;99.90
4487;DHT22;2256;48.740;9.106;2022-09-03T13:40:23;20.20;99.90
4487;DHT22;2256;48.740;9.106;2022-09-03T13:42:54;20.40;99.90
4487;DHT22;2256;48.740;9.106;2022-09-03T13:45:32;20.50;99.90
4487;DHT22;2256;48.740;9.106;2022-09-03T13:48:07;20.70;99.90
4487;DHT22;2256;48.740;9.106;2022-09-03T13:51:08;20.80;99.90
4487;DHT22;2256;48.740;9.106;2022-09-03T13:53:48;20.90;99.90
4487;DHT22;2256;48.740;9.106;2022-09-03T13:56:23;20.90;99.90
4487;DHT22;2256;48.740;9.106;2022-09-03T13:58:56;20.90;99.90
4487;DHT22;2256;48.740;9.106;2022-09-03T14:01:40;20.70;99.90
4487;DHT22;2256;48.740;9.106;2022-09-03T14:04:16;20.90;99.90
4487;DHT22;2256;48.740;9.106;2022-09-03T14:06:53;21.10;99.90
4487;DHT22;2256;48.740;9.106;2022-09-03T14:09:32;21.30;99.90
4487;DHT22;2256;48.740;9.106;2022-09-03T14:12:04;21.50;99.90
4487;DHT22;2256;48.740;9.106;2022-09-03T14:14:39;21.70;99.90
4487;DHT22;2256;48.740;9.106;2022-09-03T14:17:12;21.80;99.90
4487;DHT22;2256;48.740;9.106;2022-09-03T14:19:45;22.10;99.90
4487;DHT22;2256;48.740;9.106;2022-09-03T14:22:18;22.30;99.90
4487;DHT22;2256;48.740;9.106;2022-09-03T14:24:52;22.20;99.90
4487;DHT22;2256;48.740;9.106;2022-09-03T14:27:24;22.00;99.90
4487;DHT22;2256;48.740;9.106;2022-09-03T14:29:57;21.70;99.90
4487;DHT22;2256;48.740;9.106;2022-09-03T14:32:29;21.50;99.90
4487;DHT22;2256;48.740;9.106;2022-09-03T14:35:28;21.30;99.90
4487;DHT22;2256;48.740;9.106;2022-09-03T14:41:03;20.90;99.90
4487;DHT22;2256;48.740;9.106;2022-09-03T14:43:49;21.00;99.90
4487;DHT22;2256;48.740;9.106;2022-09-03T14:46:29;21.10;99.90
4487;DHT22;2256;48.740;9.106;2022-09-03T14:49:25;21.40;99.90
4487;DHT22;2256;48.740;9.106;2022-09-03T14:52:28;21.70;99.90
4487;DHT22;2256;48.740;9.106;2022-09-03T14:55:18;22.10;99.90
4487;DHT22;2256;48.740;9.106;2022-09-03T14:58:09;22.30;99.90
4487;DHT22;2256;48.740;9.106;2022-09-03T15:00:49;22.20;99.90
4487;DHT22;2256;48.740;9.106;2022-09-03T15:06:27;22.60;99.90
4487;DHT22;2256;48.740;9.106;2022-09-03T15:09:17;22.50;99.90
4487;DHT22;2256;48.740;9.106;2022-09-03T15:11:51;22.60;99.90
4487;DHT22;2256;48.740;9.106;2022-09-03T15:14:26;22.80;99.90
4487;DHT22;2256;48.740;9.106;2022-09-03T15:16:59;23.00;99.90
4487;DHT22;2256;48.740;9.106;2022-09-03T15:19:53;23.00;99.90
4487;DHT22;2256;48.740;9.106;2022-09-03T15:22:44;23.00;99.90
4487;DHT22;2256;48.740;9.106;2022-09-03T15:25:20;23.10;99.90
4487;DHT22;2256;48.740;9.106;2022-09-03T15:28:00;23.20;99.90
4487;DHT22;2256;48.740;9.106;2022-09-03T15:30:36;23.40;99.90
4487;DHT22;2256;48.740;9.106;2022-09-03T15:33:12;23.80;99.90
4487;DHT22;2256;48.740;9.106;2022-09-03T15:35:59;24.10;99.90
4487;DHT22;2256;48.740;9.106;2022-09-03T15:38:38;24.10;99.90
4487;DHT22;2256;48.740;9.106;2022-09-03T15:41:10;24.40;99.90
4487;DHT22;2256;48.740;9.106;2022-09-03T15:43:48;24.40;99.90
4487;DHT22;2256;48.740;9.106;2022-09-03T15:46:36;24.40;99.90
4487;DHT22;2256;48.740;9.106;2022-09-03T15:49:08;24.20;99.90
4487;DHT22;2256;48.740;9.106;2022-09-03T15:51:49;23.90;99.90
4487;DHT22;2256;48.740;9.106;2022-09-03T15:54:29;23.60;99.90
4487;DHT22;2256;48.740;9.106;2022-09-03T15:57:01;23.40;99.90
4487;DHT22;2256;48.740;9.106;2022-09-03T15:59:34;23.30;99.90
4487;DHT22;2256;48.740;9.106;2022-09-03T16:02:06;23.40;99.90
4487;DHT22;2256;48.740;9.106;2022-09-03T16:04:47;23.40;99.90
4487;DHT22;2256;48.740;9.106;2022-09-03T16:07:22;23.40;99.90
4487;DHT22;2256;48.740;9.106;2022-09-03T16:09:58;23.30;99.90
4487;DHT22;2256;48.740;9.106;2022-09-03T16:12:34;22.90;99.90
4487;DHT22;2256;48.740;9.106;2022-09-03T16:15:08;22.50;99.90
4487;DHT22;2256;48.740;9.106;2022-09-03T16:17:42;22.30;99.90
4487;DHT22;2256;48.740;9.106;2022-09-03T16:20:16;22.10;99.90
4487;DHT22;2256;48.740;9.106;2022-09-03T16:22:49;22.00;99.90
4487;DHT22;2256;48.740;9.106;2022-09-03T16:25:20;21.90;99.90
4487;DHT22;2256;48.740;9.106;2022-09-03T16:27:52;21.80;99.90
4487;DHT22;2256;48.740;9.106;2022-09-03T16:30:31;21.70;99.90
4487;DHT22;2256;48.740;9.106;2022-09-03T16:33:11;21.50;99.90
4487;DHT22;2256;48.740;9.106;2022-09-03T16:35:45;21.50;99.90
4487;DHT22;2256;48.740;9.106;2022-09-03T16:38:25;21.40;99.90
4487;DHT22;2256;48.740;9.106;2022-09-03T16:40:57;21.40;99.90
4487;DHT22;2256;48.740;9.106;2022-09-03T16:43:32;21.40;99.90
4487;DHT22;2256;48.740;9.106;2022-09-03T16:46:18;21.40;99.90
4487;DHT22;2256;48.740;9.106;2022-09-03T16:49:08;21.40;99.90
4487;DHT22;2256;48.740;9.106;2022-09-03T16:51:41;21.40;99.90
4487;DHT22;2256;48.740;9.106;2022-09-03T16:54:22;21.40;99.90